sensor_id;sensor_type;location;lat;lon;timestamp;P1;durP1;ratioP1;P2;durP2;ratioP2
16731;SDS011;8484;50.904;9.192;2022-09-03T00:00:03;0.40;;;0.40;;
16731;SDS011;8484;50.904;9.192;2022-09-03T00:02:39;1.43;;;0.40;;
16731;SDS011;8484;50.904;9.192;2022-09-03T00:05:11;0.80;;;0.60;;
16731;SDS011;8484;50.904;9.192;2022-09-03T00:07:46;1.13;;;0.57;;
16731;SDS011;8484;50.904;9.192;2022-09-03T00:10:20;0.57;;;0.50;;
16731;SDS011;8484;50.904;9.192;2022-09-03T00:12:53;0.40;;;0.40;;
16731;SDS011;8484;50.904;9.192;2022-09-03T00:15:27;1.70;;;0.67;;
16731;SDS011;8484;50.904;9.192;2022-09-03T00:17:57;0.50;;;0.40;;
16731;SDS011;8484;50.904;9.192;2022-09-03T00:20:29;0.47;;;0.43;;
16731;SDS011;8484;50.904;9.192;2022-09-03T00:23:02;0.40;;;0.40;;
16731;SDS011;8484;50.904;9.192;2022-09-03T00:25:32;0.43;;;0.40;;
16731;SDS011;8484;50.904;9.192;2022-09-03T00:28:03;0.40;;;0.40;;
16731;SDS011;8484;50.904;9.192;2022-09-03T00:30:36;0.50;;;0.50;;
16731;SDS011;8484;50.904;9.192;2022-09-03T00:33:07;0.60;;;0.50;;
16731;SDS011;8484;50.904;9.192;2022-09-03T00:35:39;2.33;;;0.50;;
16731;SDS011;8484;50.904;9.192;2022-09-03T00:38:11;0.63;;;0.40;;
16731;SDS011;8484;50.904;9.192;2022-09-03T00:40:45;0.90;;;0.60;;
16731;SDS011;8484;50.904;9.192;2022-09-03T00:43:24;0.60;;;0.50;;
16731;SDS011;8484;50.904;9.192;2022-09-03T00:46:01;0.57;;;0.50;;
16731;SDS011;8484;50.904;9.192;2022-09-03T00:48:41;2.00;;;0.57;;
16731;SDS011;8484;50.904;9.192;2022-09-03T00:51:20;1.23;;;0.50;;
16731;SDS011;8484;50.904;9.192;2022-09-03T00:53:56;1.43;;;0.70;;
16731;SDS011;8484;50.904;9.192;2022-09-03T00:56:29;1.43;;;0.53;;
16731;SDS011;8484;50.904;9.192;2022-09-03T00:59:07;0.47;;;0.40;;
16731;SDS011;8484;50.904;9.192;2022-09-03T01:01:46;1.50;;;1.27;;
16731;SDS011;8484;50.904;9.192;2022-09-03T01:04:30;5.80;;;5.20;;
16731;SDS011;8484;50.904;9.192;2022-09-03T01:07:08;2.70;;;2.40;;
16731;SDS011;8484;50.904;9.192;2022-09-03T01:09:45;4.33;;;2.60;;
16731;SDS011;8484;50.904;9.192;2022-09-03T01:12:22;6.00;;;3.53;;
16731;SDS011;8484;50.904;9.192;2022-09-03T01:14:59;3.83;;;3.43;;
16731;SDS011;8484;50.904;9.192;2022-09-03T01:17:35;4.53;;;3.93;;
16731;SDS011;8484;50.904;9.192;2022-09-03T01:20:19;5.80;;;4.73;;
16731;SDS011;8484;50.904;9.192;2022-09-03T01:26:02;2.10;;;1.77;;
16731;SDS011;8484;50.904;9.192;2022-09-03T01:28:43;2.60;;;1.77;;
16731;SDS011;8484;50.904;9.192;2022-09-03T01:31:21;2.73;;;2.20;;
16731;SDS011;8484;50.904;9.192;2022-09-03T01:33:56;2.37;;;2.00;;
16731;SDS011;8484;50.904;9.192;2022-09-03T01:36:30;2.60;;;1.60;;
16731;SDS011;8484;50.904;9.192;2022-09-03T01:39:03;1.00;;;0.90;;
16731;SDS011;8484;50.904;9.192;2022-09-03T01:41:35;1.77;;;0.77;;
16731;SDS011;8484;50.904;9.192;2022-09-03T01:44:31;0.70;;;0.70;;
16731;SDS011;8484;50.904;9.192;2022-09-03T01:47:10;0.70;;;0.70;;
16731;SDS011;8484;50.904;9.192;2022-09-03T01:49:48;0.60;;;0.60;;
16731;SDS011;8484;50.904;9.192;2022-09-03T01:52:25;2.37;;;0.60;;
16731;SDS011;8484;50.904;9.192;2022-09-03T01:55:04;1.13;;;0.70;;
16731;SDS011;8484;50.904;9.192;2022-09-03T01:57:42;0.90;;;0.70;;
16731;SDS011;8484;50.904;9.192;2022-09-03T02:00:14;1.47;;;0.60;;
16731;SDS011;8484;50.904;9.192;2022-09-03T02:02:44;0.60;;;0.60;;
16731;SDS011;8484;50.904;9.192;2022-09-03T02:05:13;1.47;;;0.70;;
16731;SDS011;8484;50.904;9.192;2022-09-03T02:07:44;0.67;;;0.60;;
16731;SDS011;8484;50.904;9.192;2022-09-03T02:10:12;1.83;;;0.80;;
16731;SDS011;8484;50.904;9.192;2022-09-03T02:12:43;0.73;;;0.60;;
16731;SDS011;8484;50.904;9.192;2022-09-03T02:15:15;2.63;;;0.60;;
16731;SDS011;8484;50.904;9.192;2022-09-03T02:17:45;1.33;;;0.60;;
16731;SDS011;8484;50.904;9.192;2022-09-03T02:20:15;13.27;;;0.80;;
16731;SDS011;8484;50.904;9.192;2022-09-03T02:22:45;1.43;;;0.60;;
16731;SDS011;8484;50.904;9.192;2022-09-03T02:25:13;0.50;;;0.50;;
16731;SDS011;8484;50.904;9.192;2022-09-03T02:27:41;0.60;;;0.60;;
16731;SDS011;8484;50.904;9.192;2022-09-03T02:30:09;0.47;;;0.47;;
16731;SDS011;8484;50.904;9.192;2022-09-03T02:32:38;1.10;;;0.70;;
16731;SDS011;8484;50.904;9.192;2022-09-03T02:35:05;2.27;;;0.60;;
16731;SDS011;8484;50.904;9.192;2022-09-03T02:37:33;0.77;;;0.50;;
16731;SDS011;8484;50.904;9.192;2022-09-03T02:40:00;0.70;;;0.60;;
16731;SDS011;8484;50.904;9.192;2022-09-03T02:42:31;0.60;;;0.47;;
16731;SDS011;8484;50.904;9.192;2022-09-03T02:44:59;0.67;;;0.50;;
16731;SDS011;8484;50.904;9.192;2022-09-03T02:47:32;2.20;;;0.60;;
16731;SDS011;8484;50.904;9.192;2022-09-03T02:50:05;0.50;;;0.50;;
16731;SDS011;8484;50.904;9.192;2022-09-03T02:52:32;0.63;;;0.57;;
16731;SDS011;8484;50.904;9.192;2022-09-03T02:54:59;0.40;;;0.40;;
16731;SDS011;8484;50.904;9.192;2022-09-03T02:57:26;0.60;;;0.47;;
16731;SDS011;8484;50.904;9.192;2022-09-03T02:59:53;1.30;;;0.60;;
16731;SDS011;8484;50.904;9.192;2022-09-03T03:02:20;0.50;;;0.50;;
16731;SDS011;8484;50.904;9.192;2022-09-03T03:04:47;0.80;;;0.50;;
16731;SDS011;8484;50.904;9.192;2022-09-03T03:07:16;1.60;;;0.67;;
16731;SDS011;8484;50.904;9.192;2022-09-03T03:09:43;0.83;;;0.50;;
16731;SDS011;8484;50.904;9.192;2022-09-03T03:12:10;0.87;;;0.50;;
16731;SDS011;8484;50.904;9.192;2022-09-03T03:14:37;1.00;;;0.50;;
16731;SDS011;8484;50.904;9.192;2022-09-03T03:17:04;0.77;;;0.50;;
16731;SDS011;8484;50.904;9.192;2022-09-03T03:19:31;0.40;;;0.40;;
16731;SDS011;8484;50.904;9.192;2022-09-03T03:21:57;0.60;;;0.60;;
16731;SDS011;8484;50.904;9.192;2022-09-03T03:24:26;0.90;;;0.50;;
16731;SDS011;8484;50.904;9.192;2022-09-03T03:26:54;0.50;;;0.50;;
16731;SDS011;8484;50.904;9.192;2022-09-03T03:29:22;1.23;;;0.60;;
16731;SDS011;8484;50.904;9.192;2022-09-03T03:31:49;0.57;;;0.50;;
16731;SDS011;8484;50.904;9.192;2022-09-03T03:34:16;0.40;;;0.40;;
16731;SDS011;8484;50.904;9.192;2022-09-03T03:36:43;0.50;;;0.50;;
16731;SDS011;8484;50.904;9.192;2022-09-03T03:39:09;0.67;;;0.50;;
16731;SDS011;8484;50.904;9.192;2022-09-03T03:41:38;1.80;;;0.50;;
16731;SDS011;8484;50.904;9.192;2022-09-03T03:44:05;1.13;;;0.60;;
16731;SDS011;8484;50.904;9.192;2022-09-03T03:46:34;0.50;;;0.50;;
16731;SDS011;8484;50.904;9.192;2022-09-03T03:49:02;1.90;;;0.50;;
16731;SDS011;8484;50.904;9.192;2022-09-03T03:51:30;1.27;;;0.50;;
16731;SDS011;8484;50.904;9.192;2022-09-03T03:53:57;0.70;;;0.50;;
16731;SDS011;8484;50.904;9.192;2022-09-03T03:56:24;1.03;;;0.60;;
16731;SDS011;8484;50.904;9.192;2022-09-03T03:58:53;0.60;;;0.50;;
16731;SDS011;8484;50.904;9.192;2022-09-03T04:01:21;0.87;;;0.57;;
16731;SDS011;8484;50.904;9.192;2022-09-03T04:03:50;0.50;;;0.43;;
16731;SDS011;8484;50.904;9.192;2022-09-03T04:06:18;0.60;;;0.60;;
16731;SDS011;8484;50.904;9.192;2022-09-03T04:08:45;0.70;;;0.53;;
16731;SDS011;8484;50.904;9.192;2022-09-03T04:11:15;1.50;;;0.47;;
16731;SDS011;8484;50.904;9.192;2022-09-03T04:13:43;1.07;;;0.60;;
16731;SDS011;8484;50.904;9.192;2022-09-03T04:16:12;0.70;;;0.60;;
16731;SDS011;8484;50.904;9.192;2022-09-03T04:18:40;2.97;;;0.60;;
16731;SDS011;8484;50.904;9.192;2022-09-03T04:21:08;1.03;;;0.70;;
16731;SDS011;8484;50.904;9.192;2022-09-03T04:23:36;0.90;;;0.70;;
16731;SDS011;8484;50.904;9.192;2022-09-03T04:26:05;1.60;;;0.50;;
16731;SDS011;8484;50.904;9.192;2022-09-03T04:28:32;0.50;;;0.50;;
16731;SDS011;8484;50.904;9.192;2022-09-03T04:31:00;0.60;;;0.53;;
16731;SDS011;8484;50.904;9.192;2022-09-03T04:33:29;0.73;;;0.50;;
16731;SDS011;8484;50.904;9.192;2022-09-03T04:36:03;0.80;;;0.53;;
16731;SDS011;8484;50.904;9.192;2022-09-03T04:38:31;0.93;;;0.60;;
16731;SDS011;8484;50.904;9.192;2022-09-03T04:40:58;0.60;;;0.53;;
16731;SDS011;8484;50.904;9.192;2022-09-03T04:43:25;0.60;;;0.60;;
16731;SDS011;8484;50.904;9.192;2022-09-03T04:45:56;1.73;;;0.63;;
16731;SDS011;8484;50.904;9.192;2022-09-03T04:48:24;0.53;;;0.50;;
16731;SDS011;8484;50.904;9.192;2022-09-03T04:50:53;3.70;;;0.70;;
16731;SDS011;8484;50.904;9.192;2022-09-03T04:53:20;0.57;;;0.50;;
16731;SDS011;8484;50.904;9.192;2022-09-03T04:55:47;1.03;;;0.63;;
16731;SDS011;8484;50.904;9.192;2022-09-03T04:58:15;0.70;;;0.57;;
16731;SDS011;8484;50.904;9.192;2022-09-03T05:00:42;0.63;;;0.50;;
16731;SDS011;8484;50.904;9.192;2022-09-03T05:03:09;0.40;;;0.40;;
16731;SDS011;8484;50.904;9.192;2022-09-03T05:05:36;1.47;;;0.60;;
16731;SDS011;8484;50.904;9.192;2022-09-03T05:08:04;1.73;;;0.73;;
16731;SDS011;8484;50.904;9.192;2022-09-03T05:10:32;0.80;;;0.70;;
16731;SDS011;8484;50.904;9.192;2022-09-03T05:12:59;0.97;;;0.50;;
16731;SDS011;8484;50.904;9.192;2022-09-03T05:15:27;0.70;;;0.70;;
16731;SDS011;8484;50.904;9.192;2022-09-03T05:17:56;1.27;;;0.60;;
16731;SDS011;8484;50.904;9.192;2022-09-03T05:20:23;1.07;;;0.70;;
16731;SDS011;8484;50.904;9.192;2022-09-03T05:22:50;1.00;;;0.57;;
16731;SDS011;8484;50.904;9.192;2022-09-03T05:25:19;3.13;;;0.60;;
16731;SDS011;8484;50.904;9.192;2022-09-03T05:27:47;2.37;;;0.50;;
16731;SDS011;8484;50.904;9.192;2022-09-03T05:30:14;2.00;;;0.53;;
16731;SDS011;8484;50.904;9.192;2022-09-03T05:32:41;0.50;;;0.50;;
16731;SDS011;8484;50.904;9.192;2022-09-03T05:35:08;3.50;;;0.70;;
16731;SDS011;8484;50.904;9.192;2022-09-03T05:37:35;1.13;;;0.60;;
16731;SDS011;8484;50.904;9.192;2022-09-03T05:40:03;0.50;;;0.50;;
16731;SDS011;8484;50.904;9.192;2022-09-03T05:42:32;0.90;;;0.70;;
16731;SDS011;8484;50.904;9.192;2022-09-03T05:45:03;2.10;;;0.50;;
16731;SDS011;8484;50.904;9.192;2022-09-03T05:47:35;0.77;;;0.60;;
16731;SDS011;8484;50.904;9.192;2022-09-03T05:50:03;0.87;;;0.50;;
16731;SDS011;8484;50.904;9.192;2022-09-03T05:52:33;2.23;;;0.50;;
16731;SDS011;8484;50.904;9.192;2022-09-03T05:55:00;1.23;;;0.70;;
16731;SDS011;8484;50.904;9.192;2022-09-03T05:57:27;2.20;;;0.50;;
16731;SDS011;8484;50.904;9.192;2022-09-03T05:59:56;1.20;;;0.57;;
16731;SDS011;8484;50.904;9.192;2022-09-03T06:02:24;0.87;;;0.67;;
16731;SDS011;8484;50.904;9.192;2022-09-03T06:04:51;0.93;;;0.50;;
16731;SDS011;8484;50.904;9.192;2022-09-03T06:07:18;2.93;;;0.60;;
16731;SDS011;8484;50.904;9.192;2022-09-03T06:09:46;2.70;;;0.70;;
16731;SDS011;8484;50.904;9.192;2022-09-03T06:12:12;1.90;;;0.60;;
16731;SDS011;8484;50.904;9.192;2022-09-03T06:14:39;4.20;;;0.50;;
16731;SDS011;8484;50.904;9.192;2022-09-03T06:17:07;0.60;;;0.50;;
16731;SDS011;8484;50.904;9.192;2022-09-03T06:19:36;0.53;;;0.50;;
16731;SDS011;8484;50.904;9.192;2022-09-03T06:22:03;1.47;;;0.70;;
16731;SDS011;8484;50.904;9.192;2022-09-03T06:24:30;0.80;;;0.40;;
16731;SDS011;8484;50.904;9.192;2022-09-03T06:26:57;0.60;;;0.60;;
16731;SDS011;8484;50.904;9.192;2022-09-03T06:29:24;0.93;;;0.40;;
16731;SDS011;8484;50.904;9.192;2022-09-03T06:31:51;1.73;;;0.47;;
16731;SDS011;8484;50.904;9.192;2022-09-03T06:34:20;0.80;;;0.57;;
16731;SDS011;8484;50.904;9.192;2022-09-03T06:36:49;1.03;;;0.60;;
16731;SDS011;8484;50.904;9.192;2022-09-03T06:39:16;1.00;;;0.40;;
16731;SDS011;8484;50.904;9.192;2022-09-03T06:41:44;0.60;;;0.50;;
16731;SDS011;8484;50.904;9.192;2022-09-03T06:44:15;0.60;;;0.50;;
16731;SDS011;8484;50.904;9.192;2022-09-03T06:46:43;2.20;;;0.40;;
16731;SDS011;8484;50.904;9.192;2022-09-03T06:49:10;0.93;;;0.50;;
16731;SDS011;8484;50.904;9.192;2022-09-03T06:51:38;1.73;;;0.40;;
16731;SDS011;8484;50.904;9.192;2022-09-03T06:54:08;2.10;;;0.50;;
16731;SDS011;8484;50.904;9.192;2022-09-03T06:56:36;0.50;;;0.40;;
16731;SDS011;8484;50.904;9.192;2022-09-03T06:59:05;1.60;;;0.70;;
16731;SDS011;8484;50.904;9.192;2022-09-03T07:01:33;1.77;;;0.60;;
16731;SDS011;8484;50.904;9.192;2022-09-03T07:04:01;0.53;;;0.40;;
16731;SDS011;8484;50.904;9.192;2022-09-03T07:06:30;0.80;;;0.50;;
16731;SDS011;8484;50.904;9.192;2022-09-03T07:08:59;0.60;;;0.53;;
16731;SDS011;8484;50.904;9.192;2022-09-03T07:11:27;1.10;;;0.47;;
16731;SDS011;8484;50.904;9.192;2022-09-03T07:13:56;1.80;;;0.30;;
16731;SDS011;8484;50.904;9.192;2022-09-03T07:16:24;0.40;;;0.40;;
16731;SDS011;8484;50.904;9.192;2022-09-03T07:18:52;0.90;;;0.60;;
16731;SDS011;8484;50.904;9.192;2022-09-03T07:21:21;0.60;;;0.50;;
16731;SDS011;8484;50.904;9.192;2022-09-03T07:23:49;1.13;;;0.60;;
16731;SDS011;8484;50.904;9.192;2022-09-03T07:26:19;1.47;;;0.37;;
16731;SDS011;8484;50.904;9.192;2022-09-03T07:28:47;1.53;;;0.60;;
16731;SDS011;8484;50.904;9.192;2022-09-03T07:31:16;0.40;;;0.40;;
16731;SDS011;8484;50.904;9.192;2022-09-03T07:33:45;1.53;;;0.50;;
16731;SDS011;8484;50.904;9.192;2022-09-03T07:36:13;0.87;;;0.40;;
16731;SDS011;8484;50.904;9.192;2022-09-03T07:38:42;0.43;;;0.43;;
16731;SDS011;8484;50.904;9.192;2022-09-03T07:41:10;0.43;;;0.43;;
16731;SDS011;8484;50.904;9.192;2022-09-03T07:43:40;0.50;;;0.40;;
16731;SDS011;8484;50.904;9.192;2022-09-03T07:46:11;0.93;;;0.60;;
16731;SDS011;8484;50.904;9.192;2022-09-03T07:48:38;3.90;;;0.80;;
16731;SDS011;8484;50.904;9.192;2022-09-03T07:51:05;1.03;;;0.60;;
16731;SDS011;8484;50.904;9.192;2022-09-03T07:53:33;0.50;;;0.50;;
16731;SDS011;8484;50.904;9.192;2022-09-03T07:56:01;2.03;;;0.63;;
16731;SDS011;8484;50.904;9.192;2022-09-03T07:58:29;0.43;;;0.40;;
16731;SDS011;8484;50.904;9.192;2022-09-03T08:01:02;0.53;;;0.43;;
16731;SDS011;8484;50.904;9.192;2022-09-03T08:03:32;0.80;;;0.60;;
16731;SDS011;8484;50.904;9.192;2022-09-03T08:05:59;0.40;;;0.40;;
16731;SDS011;8484;50.904;9.192;2022-09-03T08:08:27;1.20;;;0.53;;
16731;SDS011;8484;50.904;9.192;2022-09-03T08:10:55;1.33;;;0.60;;
16731;SDS011;8484;50.904;9.192;2022-09-03T08:13:28;0.83;;;0.43;;
16731;SDS011;8484;50.904;9.192;2022-09-03T08:15:56;0.50;;;0.50;;
16731;SDS011;8484;50.904;9.192;2022-09-03T08:18:26;0.87;;;0.60;;
16731;SDS011;8484;50.904;9.192;2022-09-03T08:21:02;0.47;;;0.40;;
16731;SDS011;8484;50.904;9.192;2022-09-03T08:23:35;1.57;;;0.50;;
16731;SDS011;8484;50.904;9.192;2022-09-03T08:26:03;0.40;;;0.40;;
16731;SDS011;8484;50.904;9.192;2022-09-03T08:28:30;0.43;;;0.43;;
16731;SDS011;8484;50.904;9.192;2022-09-03T08:30:58;0.80;;;0.60;;
16731;SDS011;8484;50.904;9.192;2022-09-03T08:33:31;3.73;;;0.70;;
16731;SDS011;8484;50.904;9.192;2022-09-03T08:36:04;1.63;;;0.50;;
16731;SDS011;8484;50.904;9.192;2022-09-03T08:38:33;0.60;;;0.50;;
16731;SDS011;8484;50.904;9.192;2022-09-03T08:41:04;1.47;;;0.80;;
16731;SDS011;8484;50.904;9.192;2022-09-03T08:43:36;2.63;;;0.50;;
16731;SDS011;8484;50.904;9.192;2022-09-03T08:46:17;3.40;;;0.57;;
16731;SDS011;8484;50.904;9.192;2022-09-03T08:48:46;3.00;;;0.60;;
16731;SDS011;8484;50.904;9.192;2022-09-03T08:51:13;19.07;;;1.23;;
16731;SDS011;8484;50.904;9.192;2022-09-03T08:53:44;1.80;;;0.50;;
16731;SDS011;8484;50.904;9.192;2022-09-03T08:56:17;2.50;;;0.53;;
16731;SDS011;8484;50.904;9.192;2022-09-03T08:58:47;0.77;;;0.50;;
16731;SDS011;8484;50.904;9.192;2022-09-03T09:01:15;1.40;;;0.53;;
16731;SDS011;8484;50.904;9.192;2022-09-03T09:03:54;1.47;;;0.60;;
16731;SDS011;8484;50.904;9.192;2022-09-03T09:06:32;1.73;;;0.40;;
16731;SDS011;8484;50.904;9.192;2022-09-03T09:09:04;0.60;;;0.40;;
16731;SDS011;8484;50.904;9.192;2022-09-03T09:11:41;16.00;;;1.80;;
16731;SDS011;8484;50.904;9.192;2022-09-03T09:14:16;9.20;;;1.20;;
16731;SDS011;8484;50.904;9.192;2022-09-03T09:16:49;0.50;;;0.50;;
16731;SDS011;8484;50.904;9.192;2022-09-03T09:19:30;2.00;;;0.50;;
16731;SDS011;8484;50.904;9.192;2022-09-03T09:22:08;0.90;;;0.50;;
16731;SDS011;8484;50.904;9.192;2022-09-03T09:24:38;0.70;;;0.40;;
16731;SDS011;8484;50.904;9.192;2022-09-03T09:27:07;0.70;;;0.40;;
16731;SDS011;8484;50.904;9.192;2022-09-03T09:29:35;0.90;;;0.43;;
16731;SDS011;8484;50.904;9.192;2022-09-03T09:32:04;1.57;;;0.57;;
16731;SDS011;8484;50.904;9.192;2022-09-03T09:34:37;3.20;;;0.57;;
16731;SDS011;8484;50.904;9.192;2022-09-03T09:37:07;9.47;;;1.03;;
16731;SDS011;8484;50.904;9.192;2022-09-03T09:39:37;3.03;;;0.60;;
16731;SDS011;8484;50.904;9.192;2022-09-03T09:42:05;0.40;;;0.40;;
16731;SDS011;8484;50.904;9.192;2022-09-03T09:44:35;0.40;;;0.40;;
16731;SDS011;8484;50.904;9.192;2022-09-03T09:47:03;2.93;;;0.80;;
16731;SDS011;8484;50.904;9.192;2022-09-03T09:49:33;9.43;;;1.53;;
16731;SDS011;8484;50.904;9.192;2022-09-03T09:52:05;2.77;;;0.50;;
16731;SDS011;8484;50.904;9.192;2022-09-03T09:54:36;3.70;;;0.90;;
16731;SDS011;8484;50.904;9.192;2022-09-03T09:57:04;1.37;;;0.50;;
16731;SDS011;8484;50.904;9.192;2022-09-03T09:59:33;1.47;;;0.57;;
16731;SDS011;8484;50.904;9.192;2022-09-03T10:02:11;1.90;;;0.60;;
16731;SDS011;8484;50.904;9.192;2022-09-03T10:04:40;0.87;;;0.40;;
16731;SDS011;8484;50.904;9.192;2022-09-03T10:10:00;0.70;;;0.50;;
16731;SDS011;8484;50.904;9.192;2022-09-03T10:12:31;1.53;;;0.47;;
16731;SDS011;8484;50.904;9.192;2022-09-03T10:15:04;0.87;;;0.47;;
16731;SDS011;8484;50.904;9.192;2022-09-03T10:17:41;1.70;;;0.70;;
16731;SDS011;8484;50.904;9.192;2022-09-03T10:20:13;0.80;;;0.40;;
16731;SDS011;8484;50.904;9.192;2022-09-03T10:22:59;0.53;;;0.50;;
16731;SDS011;8484;50.904;9.192;2022-09-03T10:25:30;3.93;;;0.40;;
16731;SDS011;8484;50.904;9.192;2022-09-03T10:28:04;1.00;;;0.47;;
16731;SDS011;8484;50.904;9.192;2022-09-03T10:30:35;0.50;;;0.50;;
16731;SDS011;8484;50.904;9.192;2022-09-03T10:33:15;1.33;;;0.50;;
16731;SDS011;8484;50.904;9.192;2022-09-03T10:35:51;0.40;;;0.40;;
16731;SDS011;8484;50.904;9.192;2022-09-03T10:38:36;0.77;;;0.40;;
16731;SDS011;8484;50.904;9.192;2022-09-03T10:41:07;0.47;;;0.40;;
16731;SDS011;8484;50.904;9.192;2022-09-03T10:43:47;1.77;;;0.50;;
16731;SDS011;8484;50.904;9.192;2022-09-03T10:46:25;5.80;;;0.73;;
16731;SDS011;8484;50.904;9.192;2022-09-03T10:49:09;8.13;;;0.83;;
16731;SDS011;8484;50.904;9.192;2022-09-03T10:51:49;0.83;;;0.30;;
16731;SDS011;8484;50.904;9.192;2022-09-03T10:54:28;1.40;;;0.50;;
16731;SDS011;8484;50.904;9.192;2022-09-03T10:57:02;2.17;;;0.70;;
16731;SDS011;8484;50.904;9.192;2022-09-03T10:59:45;3.13;;;0.60;;
16731;SDS011;8484;50.904;9.192;2022-09-03T11:02:28;1.37;;;0.47;;
16731;SDS011;8484;50.904;9.192;2022-09-03T11:05:10;0.77;;;0.50;;
16731;SDS011;8484;50.904;9.192;2022-09-03T11:07:41;1.57;;;0.60;;
16731;SDS011;8484;50.904;9.192;2022-09-03T11:10:14;1.53;;;0.53;;
16731;SDS011;8484;50.904;9.192;2022-09-03T11:12:49;0.67;;;0.43;;
16731;SDS011;8484;50.904;9.192;2022-09-03T11:15:25;2.60;;;0.60;;
16731;SDS011;8484;50.904;9.192;2022-09-03T11:17:57;1.33;;;0.40;;
16731;SDS011;8484;50.904;9.192;2022-09-03T11:20:29;0.37;;;0.37;;
16731;SDS011;8484;50.904;9.192;2022-09-03T11:22:58;4.10;;;0.63;;
16731;SDS011;8484;50.904;9.192;2022-09-03T11:25:29;4.73;;;0.70;;
16731;SDS011;8484;50.904;9.192;2022-09-03T11:28:02;6.80;;;0.70;;
16731;SDS011;8484;50.904;9.192;2022-09-03T11:30:47;9.00;;;0.90;;
16731;SDS011;8484;50.904;9.192;2022-09-03T11:33:22;2.40;;;0.50;;
16731;SDS011;8484;50.904;9.192;2022-09-03T11:35:54;1.90;;;0.60;;
16731;SDS011;8484;50.904;9.192;2022-09-03T11:38:25;5.23;;;0.60;;
16731;SDS011;8484;50.904;9.192;2022-09-03T11:40:58;3.80;;;0.60;;
16731;SDS011;8484;50.904;9.192;2022-09-03T11:43:36;7.50;;;0.70;;
16731;SDS011;8484;50.904;9.192;2022-09-03T11:46:05;9.33;;;1.10;;
16731;SDS011;8484;50.904;9.192;2022-09-03T11:48:38;0.50;;;0.30;;
16731;SDS011;8484;50.904;9.192;2022-09-03T11:51:20;10.77;;;1.10;;
16731;SDS011;8484;50.904;9.192;2022-09-03T11:53:58;9.83;;;0.73;;
16731;SDS011;8484;50.904;9.192;2022-09-03T11:56:28;8.30;;;0.60;;
16731;SDS011;8484;50.904;9.192;2022-09-03T11:59:00;8.53;;;0.80;;
16731;SDS011;8484;50.904;9.192;2022-09-03T12:01:31;2.93;;;1.23;;
16731;SDS011;8484;50.904;9.192;2022-09-03T12:04:00;0.57;;;0.40;;
16731;SDS011;8484;50.904;9.192;2022-09-03T12:18:43;2.50;;;0.50;;
16731;SDS011;8484;50.904;9.192;2022-09-03T12:21:12;0.40;;;0.40;;
16731;SDS011;8484;50.904;9.192;2022-09-03T12:23:44;1.67;;;0.60;;
16731;SDS011;8484;50.904;9.192;2022-09-03T12:26:13;2.43;;;0.50;;
16731;SDS011;8484;50.904;9.192;2022-09-03T12:28:45;0.80;;;0.50;;
16731;SDS011;8484;50.904;9.192;2022-09-03T12:31:15;8.60;;;0.97;;
16731;SDS011;8484;50.904;9.192;2022-09-03T12:33:48;2.97;;;0.70;;
16731;SDS011;8484;50.904;9.192;2022-09-03T12:36:18;1.63;;;0.50;;
16731;SDS011;8484;50.904;9.192;2022-09-03T12:38:45;4.80;;;0.70;;
16731;SDS011;8484;50.904;9.192;2022-09-03T12:41:20;1.07;;;0.60;;
16731;SDS011;8484;50.904;9.192;2022-09-03T12:43:51;4.97;;;0.60;;
16731;SDS011;8484;50.904;9.192;2022-09-03T12:46:23;0.57;;;0.40;;
16731;SDS011;8484;50.904;9.192;2022-09-03T12:48:52;2.43;;;0.60;;
16731;SDS011;8484;50.904;9.192;2022-09-03T12:51:20;0.30;;;0.30;;
16731;SDS011;8484;50.904;9.192;2022-09-03T12:53:48;1.40;;;0.50;;
16731;SDS011;8484;50.904;9.192;2022-09-03T12:56:18;3.73;;;0.40;;
16731;SDS011;8484;50.904;9.192;2022-09-03T12:58:48;4.00;;;0.80;;
16731;SDS011;8484;50.904;9.192;2022-09-03T13:01:24;3.07;;;0.60;;
16731;SDS011;8484;50.904;9.192;2022-09-03T13:03:57;4.53;;;0.60;;
16731;SDS011;8484;50.904;9.192;2022-09-03T13:06:30;2.53;;;0.67;;
16731;SDS011;8484;50.904;9.192;2022-09-03T13:09:14;3.50;;;0.50;;
16731;SDS011;8484;50.904;9.192;2022-09-03T13:11:44;1.37;;;0.40;;
16731;SDS011;8484;50.904;9.192;2022-09-03T13:14:12;1.80;;;0.60;;
16731;SDS011;8484;50.904;9.192;2022-09-03T13:16:47;0.43;;;0.40;;
16731;SDS011;8484;50.904;9.192;2022-09-03T13:19:34;1.40;;;0.47;;
16731;SDS011;8484;50.904;9.192;2022-09-03T13:22:10;1.47;;;0.60;;
16731;SDS011;8484;50.904;9.192;2022-09-03T13:24:52;2.83;;;0.43;;
16731;SDS011;8484;50.904;9.192;2022-09-03T13:27:38;2.80;;;0.40;;
16731;SDS011;8484;50.904;9.192;2022-09-03T13:30:13;0.33;;;0.33;;
16731;SDS011;8484;50.904;9.192;2022-09-03T13:32:44;0.97;;;0.47;;
16731;SDS011;8484;50.904;9.192;2022-09-03T13:35:19;0.50;;;0.40;;
16731;SDS011;8484;50.904;9.192;2022-09-03T13:38:08;0.93;;;0.43;;
16731;SDS011;8484;50.904;9.192;2022-09-03T13:40:47;2.17;;;0.40;;
16731;SDS011;8484;50.904;9.192;2022-09-03T13:43:21;0.43;;;0.40;;
16731;SDS011;8484;50.904;9.192;2022-09-03T13:45:56;0.30;;;0.30;;
16731;SDS011;8484;50.904;9.192;2022-09-03T13:48:27;0.37;;;0.30;;
16731;SDS011;8484;50.904;9.192;2022-09-03T13:51:18;1.70;;;0.50;;
16731;SDS011;8484;50.904;9.192;2022-09-03T13:53:56;0.87;;;0.40;;
16731;SDS011;8484;50.904;9.192;2022-09-03T13:59:18;1.63;;;0.50;;
16731;SDS011;8484;50.904;9.192;2022-09-03T14:01:59;1.27;;;0.50;;
16731;SDS011;8484;50.904;9.192;2022-09-03T14:04:39;0.53;;;0.40;;
16731;SDS011;8484;50.904;9.192;2022-09-03T14:07:14;3.20;;;0.50;;
16731;SDS011;8484;50.904;9.192;2022-09-03T14:09:51;1.00;;;0.60;;
16731;SDS011;8484;50.904;9.192;2022-09-03T14:12:24;0.73;;;0.50;;
16731;SDS011;8484;50.904;9.192;2022-09-03T14:15:02;0.57;;;0.50;;
16731;SDS011;8484;50.904;9.192;2022-09-03T14:17:38;1.33;;;0.50;;
16731;SDS011;8484;50.904;9.192;2022-09-03T14:20:10;4.27;;;0.50;;
16731;SDS011;8484;50.904;9.192;2022-09-03T14:22:43;0.57;;;0.47;;
16731;SDS011;8484;50.904;9.192;2022-09-03T14:25:16;0.77;;;0.40;;
16731;SDS011;8484;50.904;9.192;2022-09-03T14:27:44;3.07;;;0.40;;
16731;SDS011;8484;50.904;9.192;2022-09-03T14:33:02;0.30;;;0.30;;
16731;SDS011;8484;50.904;9.192;2022-09-03T14:35:37;2.77;;;0.70;;
16731;SDS011;8484;50.904;9.192;2022-09-03T14:38:31;0.97;;;0.33;;
16731;SDS011;8484;50.904;9.192;2022-09-03T14:41:21;0.40;;;0.40;;
16731;SDS011;8484;50.904;9.192;2022-09-03T14:44:14;0.70;;;0.40;;
16731;SDS011;8484;50.904;9.192;2022-09-03T14:47:09;0.60;;;0.50;;
16731;SDS011;8484;50.904;9.192;2022-09-03T14:49:54;0.77;;;0.43;;
16731;SDS011;8484;50.904;9.192;2022-09-03T14:52:56;3.70;;;0.70;;
16731;SDS011;8484;50.904;9.192;2022-09-03T14:58:28;1.30;;;0.50;;
16731;SDS011;8484;50.904;9.192;2022-09-03T15:01:05;1.63;;;0.33;;
16731;SDS011;8484;50.904;9.192;2022-09-03T15:06:48;0.77;;;0.43;;
16731;SDS011;8484;50.904;9.192;2022-09-03T15:09:30;2.43;;;0.40;;
16731;SDS011;8484;50.904;9.192;2022-09-03T15:12:00;0.20;;;0.20;;
16731;SDS011;8484;50.904;9.192;2022-09-03T15:14:34;1.37;;;0.50;;
16731;SDS011;8484;50.904;9.192;2022-09-03T15:17:15;2.53;;;0.50;;
16731;SDS011;8484;50.904;9.192;2022-09-03T15:20:05;1.50;;;0.40;;
16731;SDS011;8484;50.904;9.192;2022-09-03T15:22:56;0.50;;;0.30;;
16731;SDS011;8484;50.904;9.192;2022-09-03T15:25:39;0.50;;;0.30;;
16731;SDS011;8484;50.904;9.192;2022-09-03T15:28:41;0.40;;;0.40;;
16731;SDS011;8484;50.904;9.192;2022-09-03T15:31:19;0.90;;;0.37;;
16731;SDS011;8484;50.904;9.192;2022-09-03T15:33:50;2.80;;;0.40;;
16731;SDS011;8484;50.904;9.192;2022-09-03T15:36:25;1.07;;;0.40;;
16731;SDS011;8484;50.904;9.192;2022-09-03T15:39:02;5.27;;;1.00;;
16731;SDS011;8484;50.904;9.192;2022-09-03T15:41:34;1.33;;;0.50;;
16731;SDS011;8484;50.904;9.192;2022-09-03T15:44:07;0.57;;;0.47;;
16731;SDS011;8484;50.904;9.192;2022-09-03T15:46:47;0.50;;;0.30;;
16731;SDS011;8484;50.904;9.192;2022-09-03T15:52:09;1.03;;;0.50;;
16731;SDS011;8484;50.904;9.192;2022-09-03T15:54:55;0.80;;;0.50;;
16731;SDS011;8484;50.904;9.192;2022-09-03T15:57:29;4.07;;;0.60;;
16731;SDS011;8484;50.904;9.192;2022-09-03T16:00:05;14.60;;;1.10;;
16731;SDS011;8484;50.904;9.192;2022-09-03T16:02:38;3.03;;;0.70;;